Time,TemperatureF,DewpointF,PressureIn,WindDirection,WindDirectionDegrees,WindSpeedMPH,WindSpeedGustMPH,Humidity,HourlyPrecipIn,Conditions,Clouds,dailyrainin,SolarRadiationWatts/m^2,SoftwareType,DateUTC
2014-03-03 00:00:00,16.1,10.2,30.31,North,9,3.0,3.0,77,0.00,,,0.00,0,Wunderground v.1.15,2014-03-03 05:00:00,
2014-03-03 00:05:00,16.0,10.1,30.31,North,5,2.0,4.0,77,0.00,,,0.00,0,Wunderground v.1.15,2014-03-03 05:05:00,
2014-03-03 00:10:00,15.8,9.6,30.31,North,355,3.0,3.0,76,0.00,,,0.00,0,Wunderground v.1.15,2014-03-03 05:10:00,
2014-03-03 00:20:00,15.6,9.7,30.31,NNE,30,2.0,2.0,77,0.00,,,0.00,0,Wunderground v.1.15,2014-03-03 05:20:00,
2014-03-03 00:25:00,15.5,9.6,30.31,North,355,1.0,4.0,77,0.00,,,0.00,0,Wunderground v.1.15,2014-03-03 05:25:00,
2014-03-03 00:30:00,15.4,9.8,30.31,NNE,13,1.0,15.0,78,0.00,,,0.00,0,Wunderground v.1.15,2014-03-03 05:30:00,
2014-03-03 00:35:00,15.3,9.7,30.31,NNW,348,1.0,15.0,78,0.00,,,0.00,0,Wunderground v.1.15,2014-03-03 05:35:00,
2014-03-03 00:40:00,15.2,9.6,30.31,North,5,2.0,2.0,78,0.00,,,0.00,0,Wunderground v.1.15,2014-03-03 05:40:00,
2014-03-03 00:45:00,15.2,9.6,30.31,North,360,2.0,15.0,78,0.00,,,0.00,0,Wunderground v.1.15,2014-03-03 05:45:00,
2014-03-03 00:55:00,15.0,9.7,30.31,North,360,2.0,15.0,79,0.00,,,0.00,0,Wunderground v.1.15,2014-03-03 05:55:00,
2014-03-03 01:05:00,14.9,9.8,30.32,NE,35,2.0,15.0,80,0.00,,,0.00,0,Wunderground v.1.15,2014-03-03 06:05:00,
2014-03-03 01:15:00,14.7,9.6,30.32,NNW,340,2.0,15.0,80,0.00,,,0.00,0,Wunderground v.1.15,2014-03-03 06:15:00,
2014-03-03 01:20:00,14.6,9.6,30.32,North,360,2.0,15.0,80,0.00,,,0.00,0,Wunderground v.1.15,2014-03-03 06:20:00,
2014-03-03 01:30:00,14.3,9.3,30.31,NE,40,2.0,2.0,80,0.00,,,0.00,0,Wunderground v.1.15,2014-03-03 06:30:00,
2014-03-03 01:40:00,13.9,8.6,30.32,NNE,22,2.0,2.0,79,0.00,,,0.00,0,Wunderground v.1.15,2014-03-03 06:40:00,
2014-03-03 01:45:00,13.8,8.5,30.33,NE,35,2.0,15.0,79,0.00,,,0.00,0,Wunderground v.1.15,2014-03-03 06:45:00,
2014-03-03 01:50:00,13.7,8.4,30.33,NNW,336,2.0,2.0,79,0.00,,,0.00,0,Wunderground v.1.15,2014-03-03 06:50:00,
2014-03-03 01:55:00,13.7,8.7,30.33,North,11,2.0,15.0,80,0.00,,,0.00,0,Wunderground v.1.15,2014-03-03 06:55:00,
2014-03-03 02:05:00,13.5,8.5,30.33,NNW,339,1.0,2.0,80,0.00,,,0.00,0,Wunderground v.1.15,2014-03-03 07:05:00,
2014-03-03 02:10:00,13.3,8.3,30.33,NNW,342,2.0,2.0,80,0.00,,,0.00,0,Wunderground v.1.15,2014-03-03 07:10:00,
2014-03-03 02:15:00,13.2,8.2,30.33,NNE,15,2.0,3.0,80,0.00,,,0.00,0,Wunderground v.1.15,2014-03-03 07:15:00,
2014-03-03 02:25:00,13.0,8.3,30.32,North,10,2.0,15.0,81,0.00,,,0.00,0,Wunderground v.1.15,2014-03-03 07:25:00,
2014-03-03 02:35:00,12.8,8.1,30.32,NW,318,2.0,15.0,81,0.00,,,0.00,0,Wunderground v.1.15,2014-03-03 07:35:00,
2014-03-03 02:40:00,12.8,8.3,30.32,NNE,13,1.0,15.0,82,0.00,,,0.00,0,Wunderground v.1.15,2014-03-03 07:40:00,
2014-03-03 02:50:00,12.8,8.6,30.32,NNW,338,2.0,2.0,83,0.00,,,0.00,0,Wunderground v.1.15,2014-03-03 07:50:00,
2014-03-03 03:00:00,12.8,8.6,30.32,NNW,347,2.0,15.0,83,0.00,,,0.00,0,Wunderground v.1.15,2014-03-03 08:00:00,
2014-03-03 03:05:00,12.8,8.6,30.33,North,355,2.0,15.0,83,0.00,,,0.00,0,Wunderground v.1.15,2014-03-03 08:05:00,
2014-03-03 03:10:00,12.8,8.6,30.32,NW,324,2.0,15.0,83,0.00,,,0.00,0,Wunderground v.1.15,2014-03-03 08:10:00,
2014-03-03 03:20:00,12.8,8.6,30.33,NE,46,2.0,2.0,83,0.00,,,0.00,0,Wunderground v.1.15,2014-03-03 08:20:00,
2014-03-03 03:30:00,12.7,8.5,30.32,NW,319,1.0,15.0,83,0.00,,,0.00,0,Wunderground v.1.15,2014-03-03 08:30:00,
2014-03-03 03:40:00,12.6,8.4,30.32,North,355,2.0,2.0,83,0.00,,,0.00,0,Wunderground v.1.15,2014-03-03 08:40:00,
2014-03-03 03:50:00,12.5,8.3,30.32,North,360,1.0,15.0,83,0.00,,,0.00,0,Wunderground v.1.15,2014-03-03 08:50:00,
2014-03-03 03:55:00,12.4,8.5,30.32,NNW,342,1.0,15.0,84,0.00,,,0.00,0,Wunderground v.1.15,2014-03-03 08:55:00,
2014-03-03 04:00:00,12.4,8.5,30.32,NW,320,1.0,15.0,84,0.00,,,0.00,0,Wunderground v.1.15,2014-03-03 09:00:00,
2014-03-03 04:05:00,12.4,8.5,30.33,NNE,24,1.0,15.0,84,0.00,,,0.00,0,Wunderground v.1.15,2014-03-03 09:05:00,
2014-03-03 04:15:00,12.5,8.6,30.32,NNE,25,1.0,15.0,84,0.00,,,0.00,0,Wunderground v.1.15,2014-03-03 09:15:00,
2014-03-03 04:20:00,12.5,8.8,30.33,North,5,1.0,15.0,85,0.00,,,0.00,0,Wunderground v.1.15,2014-03-03 09:20:00,
2014-03-03 04:25:00,12.5,8.8,30.33,NNE,32,1.0,15.0,85,0.00,,,0.00,0,Wunderground v.1.15,2014-03-03 09:25:00,
2014-03-03 04:35:00,12.6,9.2,30.32,NW,309,1.0,15.0,86,0.00,,,0.00,0,Wunderground v.1.15,2014-03-03 09:35:00,
2014-03-03 04:40:00,12.7,9.3,30.32,North,10,1.0,1.0,86,0.00,,,0.00,0,Wunderground v.1.15,2014-03-03 09:40:00,
2014-03-03 04:45:00,12.8,9.4,30.32,NNE,19,2.0,2.0,86,0.00,,,0.00,0,Wunderground v.1.15,2014-03-03 09:45:00,
2014-03-03 04:55:00,13.1,9.4,30.32,North,9,2.0,15.0,85,0.00,,,0.00,0,Wunderground v.1.15,2014-03-03 09:55:00,
2014-03-03 05:00:00,13.2,9.3,30.33,NE,35,2.0,15.0,84,0.00,,,0.00,0,Wunderground v.1.15,2014-03-03 10:00:00,
2014-03-03 05:05:00,13.3,9.1,30.33,NNE,24,2.0,15.0,83,0.00,,,0.00,0,Wunderground v.1.15,2014-03-03 10:05:00,
2014-03-03 05:10:00,13.3,9.1,30.33,NNE,19,2.0,2.0,83,0.00,,,0.00,0,Wunderground v.1.15,2014-03-03 10:10:00,
2014-03-03 05:15:00,13.3,8.8,30.33,North,355,2.0,15.0,82,0.00,,,0.00,0,Wunderground v.1.15,2014-03-03 10:15:00,
2014-03-03 05:20:00,13.3,8.8,30.34,NW,312,2.0,15.0,82,0.00,,,0.00,0,Wunderground v.1.15,2014-03-03 10:20:00,
2014-03-03 05:30:00,13.1,8.4,30.35,North,5,2.0,2.0,81,0.00,,,0.00,0,Wunderground v.1.15,2014-03-03 10:30:00,
2014-03-03 05:35:00,13.0,8.0,30.35,North,351,2.0,3.0,80,0.00,,,0.00,0,Wunderground v.1.15,2014-03-03 10:35:00,
2014-03-03 05:45:00,12.7,7.1,30.35,NNE,29,2.0,15.0,78,0.00,,,0.00,0,Wunderground v.1.15,2014-03-03 10:45:00,
2014-03-03 05:50:00,12.5,6.7,30.36,East,81,2.0,15.0,77,0.00,,,0.00,0,Wunderground v.1.15,2014-03-03 10:50:00,
2014-03-03 06:00:00,12.3,6.5,30.37,NNE,23,2.0,2.0,77,0.00,,,0.00,0,Wunderground v.1.15,2014-03-03 11:00:00,
2014-03-03 06:05:00,12.2,6.1,30.37,NNW,338,2.0,3.0,76,0.00,,,0.00,0,Wunderground v.1.15,2014-03-03 11:05:00,
2014-03-03 06:15:00,11.9,5.5,30.38,NW,323,2.0,15.0,75,0.00,,,0.00,0,Wunderground v.1.15,2014-03-03 11:15:00,
2014-03-03 06:25:00,11.5,5.1,30.38,North,360,2.0,15.0,75,0.00,,,0.00,0,Wunderground v.1.15,2014-03-03 11:25:00,
2014-03-03 06:35:00,11.3,4.9,30.38,NNE,24,2.0,15.0,75,0.00,,,0.00,0,Wunderground v.1.15,2014-03-03 11:35:00,
2014-03-03 06:45:00,11.1,5.0,30.38,NE,46,2.0,15.0,76,0.00,,,0.00,0,Wunderground v.1.15,2014-03-03 11:45:00,
2014-03-03 06:50:00,11.0,4.9,30.38,ENE,60,2.0,2.0,76,0.00,,,0.00,0,Wunderground v.1.15,2014-03-03 11:50:00,
2014-03-03 07:00:00,11.0,4.9,30.38,North,355,2.0,2.0,76,0.00,,,0.00,0,Wunderground v.1.15,2014-03-03 12:00:00,
2014-03-03 07:05:00,10.9,4.8,30.38,NNE,24,2.0,15.0,76,0.00,,,0.00,0,Wunderground v.1.15,2014-03-03 12:05:00,
2014-03-03 07:10:00,10.9,5.1,30.38,NE,40,2.0,15.0,77,0.00,,,0.00,0,Wunderground v.1.15,2014-03-03 12:10:00,
2014-03-03 07:20:00,10.5,4.7,30.38,NNW,329,2.0,15.0,77,0.00,,,0.00,11,Wunderground v.1.15,2014-03-03 12:20:00,
2014-03-03 07:30:00,10.2,4.4,30.39,NW,316,2.0,2.0,77,0.00,,,0.00,23,Wunderground v.1.15,2014-03-03 12:30:00,
2014-03-03 07:40:00,10.0,4.2,30.39,NNE,27,2.0,2.0,77,0.00,,,0.00,46,Wunderground v.1.15,2014-03-03 12:40:00,
2014-03-03 07:45:00,9.9,4.1,30.40,North,5,1.0,15.0,77,0.00,,,0.00,49,Wunderground v.1.15,2014-03-03 12:45:00,
2014-03-03 07:55:00,9.8,3.7,30.40,NNE,22,2.0,15.0,76,0.00,,,0.00,65,Wunderground v.1.15,2014-03-03 12:55:00,
2014-03-03 08:05:00,9.5,3.2,30.40,NNE,17,1.0,15.0,75,0.00,,,0.00,72,Wunderground v.1.15,2014-03-03 13:05:00,
2014-03-03 08:10:00,9.3,2.7,30.41,NNW,348,2.0,2.0,74,0.00,,,0.00,77,Wunderground v.1.15,2014-03-03 13:10:00,
2014-03-03 08:15:00,9.1,2.5,30.42,NNE,19,2.0,3.0,74,0.00,,,0.00,104,Wunderground v.1.15,2014-03-03 13:15:00,
2014-03-03 08:20:00,9.0,2.4,30.42,NNE,29,2.0,15.0,74,0.00,,,0.00,128,Wunderground v.1.15,2014-03-03 13:20:00,
2014-03-03 08:30:00,9.7,3.1,30.43,NW,324,1.0,15.0,74,0.00,,,0.00,246,Wunderground v.1.15,2014-03-03 13:30:00,
2014-03-03 08:40:00,9.7,2.8,30.44,NE,34,2.0,2.0,73,0.00,,,0.00,165,Wunderground v.1.15,2014-03-03 13:40:00,
2014-03-03 08:50:00,9.5,2.3,30.44,North,10,2.0,2.0,72,0.00,,,0.00,220,Wunderground v.1.15,2014-03-03 13:50:00,
2014-03-03 09:00:00,9.7,2.5,30.44,North,360,2.0,15.0,72,0.00,,,0.00,218,Wunderground v.1.15,2014-03-03 14:00:00,
2014-03-03 09:10:00,9.6,2.1,30.44,North,5,2.0,15.0,71,0.00,,,0.00,241,Wunderground v.1.15,2014-03-03 14:10:00,
2014-03-03 09:15:00,9.6,2.4,30.44,NE,41,2.0,15.0,72,0.00,,,0.00,241,Wunderground v.1.15,2014-03-03 14:15:00,
2014-03-03 09:20:00,9.7,2.2,30.45,NNW,340,2.0,15.0,71,0.00,,,0.00,234,Wunderground v.1.15,2014-03-03 14:20:00,
2014-03-03 09:30:00,9.9,2.4,30.45,NNE,30,2.0,15.0,71,0.00,,,0.00,285,Wunderground v.1.15,2014-03-03 14:30:00,
2014-03-03 09:35:00,9.9,2.1,30.45,North,355,3.0,15.0,70,0.00,,,0.00,315,Wunderground v.1.15,2014-03-03 14:35:00,
2014-03-03 09:40:00,10.3,2.4,30.45,NNE,19,3.0,15.0,70,0.00,,,0.00,570,Wunderground v.1.15,2014-03-03 14:40:00,
2014-03-03 09:50:00,11.2,3.0,30.45,NNW,331,2.0,2.0,69,0.00,,,0.00,424,Wunderground v.1.15,2014-03-03 14:50:00,
2014-03-03 09:55:00,11.3,2.8,30.46,North,5,2.0,15.0,68,0.00,,,0.00,448,Wunderground v.1.15,2014-03-03 14:55:00,
2014-03-03 10:05:00,11.0,2.2,30.46,North,5,2.0,3.0,67,0.00,,,0.00,339,Wunderground v.1.15,2014-03-03 15:05:00,
2014-03-03 10:15:00,11.6,2.8,30.46,NNE,33,3.0,15.0,67,0.00,,,0.00,598,Wunderground v.1.15,2014-03-03 15:15:00,
2014-03-03 10:25:00,11.7,2.2,30.47,NW,309,2.0,15.0,65,0.00,,,0.00,622,Wunderground v.1.15,2014-03-03 15:25:00,
2014-03-03 10:35:00,12.6,3.4,30.47,NNE,15,1.0,15.0,66,0.00,,,0.00,636,Wunderground v.1.15,2014-03-03 15:35:00,
2014-03-03 10:40:00,12.6,2.7,30.47,NNW,335,2.0,2.0,64,0.00,,,0.00,659,Wunderground v.1.15,2014-03-03 15:40:00,
2014-03-03 10:50:00,12.9,3.0,30.47,NNE,28,2.0,2.0,64,0.00,,,0.00,573,Wunderground v.1.15,2014-03-03 15:50:00,
2014-03-03 10:55:00,13.1,3.2,30.47,North,5,1.0,3.0,64,0.00,,,0.00,668,Wunderground v.1.15,2014-03-03 15:55:00,
2014-03-03 11:05:00,13.5,3.6,30.47,NNE,32,2.0,15.0,64,0.00,,,0.00,691,Wunderground v.1.15,2014-03-03 16:05:00,
2014-03-03 11:15:00,13.5,3.2,30.48,East,85,3.0,15.0,63,0.00,,,0.00,707,Wunderground v.1.15,2014-03-03 16:15:00,
2014-03-03 11:25:00,13.5,2.9,30.48,NNE,15,3.0,4.0,62,0.00,,,0.00,717,Wunderground v.1.15,2014-03-03 16:25:00,
2014-03-03 11:35:00,13.8,3.2,30.48,NW,310,2.0,5.0,62,0.00,,,0.00,729,Wunderground v.1.15,2014-03-03 16:35:00,
2014-03-03 11:40:00,14.0,3.0,30.48,NNW,347,2.0,2.0,61,0.00,,,0.00,735,Wunderground v.1.15,2014-03-03 16:40:00,
2014-03-03 11:50:00,14.2,3.2,30.48,NE,46,3.0,3.0,61,0.00,,,0.00,742,Wunderground v.1.15,2014-03-03 16:50:00,
2014-03-03 12:00:00,14.5,3.1,30.48,North,5,2.0,15.0,60,0.00,,,0.00,751,Wunderground v.1.15,2014-03-03 17:00:00,
2014-03-03 12:10:00,15.1,3.7,30.48,NNW,338,2.0,15.0,60,0.00,,,0.00,758,Wunderground v.1.15,2014-03-03 17:10:00,
2014-03-03 12:15:00,15.3,3.5,30.48,NNE,14,2.0,15.0,59,0.00,,,0.00,759,Wunderground v.1.15,2014-03-03 17:15:00,
2014-03-03 12:25:00,15.9,3.7,30.48,North,11,2.0,15.0,58,0.00,,,0.00,766,Wunderground v.1.15,2014-03-03 17:25:00,
2014-03-03 12:35:00,15.7,3.1,30.48,NNW,329,3.0,15.0,57,0.00,,,0.00,765,Wunderground v.1.15,2014-03-03 17:35:00,
2014-03-03 12:45:00,16.2,3.6,30.48,NE,53,2.0,15.0,57,0.00,,,0.00,766,Wunderground v.1.15,2014-03-03 17:45:00,
2014-03-03 12:55:00,16.2,2.8,30.49,WNW,296,3.0,3.0,55,0.00,,,0.00,765,Wunderground v.1.15,2014-03-03 17:55:00,
2014-03-03 13:00:00,16.1,3.1,30.49,North,9,3.0,15.0,56,0.00,,,0.00,765,Wunderground v.1.15,2014-03-03 18:00:00,
2014-03-03 13:05:00,16.4,3.4,30.49,ENE,59,3.0,15.0,56,0.00,,,0.00,761,Wunderground v.1.15,2014-03-03 18:05:00,
2014-03-03 13:15:00,16.9,3.9,30.48,NNE,26,2.0,15.0,56,0.00,,,0.00,758,Wunderground v.1.15,2014-03-03 18:15:00,
2014-03-03 13:20:00,17.0,4.0,30.48,North,355,2.0,2.0,56,0.00,,,0.00,756,Wunderground v.1.15,2014-03-03 18:20:00,
2014-03-03 13:25:00,17.0,3.6,30.47,North,360,2.0,15.0,55,0.00,,,0.00,752,Wunderground v.1.15,2014-03-03 18:25:00,
2014-03-03 13:30:00,16.9,3.5,30.47,North,360,2.0,15.0,55,0.00,,,0.00,747,Wunderground v.1.15,2014-03-03 18:30:00,
2014-03-03 13:35:00,17.0,4.4,30.47,North,5,2.0,15.0,57,0.00,,,0.00,744,Wunderground v.1.15,2014-03-03 18:35:00,
2014-03-03 13:40:00,17.2,3.8,30.47,NE,49,2.0,2.0,55,0.00,,,0.00,738,Wunderground v.1.15,2014-03-03 18:40:00,
2014-03-03 13:50:00,17.5,4.1,30.47,NNW,332,1.0,15.0,55,0.00,,,0.00,728,Wunderground v.1.15,2014-03-03 18:50:00,
2014-03-03 14:00:00,17.2,1.7,30.48,NE,42,2.0,2.0,50,0.00,,,0.00,715,Wunderground v.1.15,2014-03-03 19:00:00,
2014-03-03 14:10:00,17.1,2.5,30.48,North,350,2.0,15.0,52,0.00,,,0.00,701,Wunderground v.1.15,2014-03-03 19:10:00,
2014-03-03 14:20:00,17.4,2.8,30.48,NNW,344,2.0,15.0,52,0.00,,,0.00,686,Wunderground v.1.15,2014-03-03 19:20:00,
2014-03-03 14:25:00,17.3,1.8,30.48,NNW,336,2.0,15.0,50,0.00,,,0.00,675,Wunderground v.1.15,2014-03-03 19:25:00,
2014-03-03 14:30:00,17.3,2.2,30.48,NNE,28,3.0,3.0,51,0.00,,,0.01,666,Wunderground v.1.15,2014-03-03 19:30:00,
2014-03-03 14:35:00,17.6,2.9,30.48,SSW,193,2.0,15.0,52,0.00,,,0.01,657,Wunderground v.1.15,2014-03-03 19:35:00,
2014-03-03 14:45:00,17.7,2.6,30.48,NNE,30,2.0,15.0,51,0.00,,,0.01,636,Wunderground v.1.15,2014-03-03 19:45:00,
2014-03-03 14:55:00,18.1,3.4,30.48,NE,46,1.0,3.0,52,0.00,,,0.02,617,Wunderground v.1.15,2014-03-03 19:55:00,
2014-03-03 15:05:00,17.9,2.4,30.48,NE,43,2.0,15.0,50,0.00,,,0.02,592,Wunderground v.1.15,2014-03-03 20:05:00,
2014-03-03 15:10:00,18.1,3.4,30.49,North,350,2.0,2.0,52,0.00,,,0.02,584,Wunderground v.1.15,2014-03-03 20:10:00,
2014-03-03 15:20:00,18.2,3.1,30.48,NNW,344,2.0,15.0,51,0.00,,,0.02,559,Wunderground v.1.15,2014-03-03 20:20:00,
2014-03-03 15:25:00,18.0,2.5,30.48,NNE,24,2.0,15.0,50,0.00,,,0.02,545,Wunderground v.1.15,2014-03-03 20:25:00,
2014-03-03 15:35:00,17.9,2.4,30.48,NNE,12,2.0,15.0,50,0.00,,,0.02,520,Wunderground v.1.15,2014-03-03 20:35:00,
2014-03-03 15:40:00,17.9,1.9,30.48,North,9,2.0,15.0,49,0.00,,,0.03,503,Wunderground v.1.15,2014-03-03 20:40:00,
2014-03-03 15:50:00,17.7,1.7,30.48,NNE,17,2.0,2.0,49,0.00,,,0.03,476,Wunderground v.1.15,2014-03-03 20:50:00,
2014-03-03 15:55:00,17.5,2.0,30.48,NNW,338,2.0,4.0,50,0.00,,,0.03,461,Wunderground v.1.15,2014-03-03 20:55:00,
2014-03-03 16:05:00,17.3,1.8,30.47,North,360,3.0,15.0,50,0.00,,,0.04,434,Wunderground v.1.15,2014-03-03 21:05:00,
2014-03-03 16:15:00,17.2,2.1,30.47,North,355,3.0,15.0,51,0.00,,,0.04,399,Wunderground v.1.15,2014-03-03 21:15:00,
2014-03-03 16:25:00,17.1,2.5,30.47,NW,321,2.0,15.0,52,0.00,,,0.04,292,Wunderground v.1.15,2014-03-03 21:25:00,
2014-03-03 16:35:00,16.9,2.3,30.47,NNE,28,2.0,15.0,52,0.00,,,0.04,237,Wunderground v.1.15,2014-03-03 21:35:00,
2014-03-03 16:45:00,16.8,3.0,30.47,ENE,57,1.0,15.0,54,0.00,,,0.04,299,Wunderground v.1.15,2014-03-03 21:45:00,
2014-03-03 16:50:00,16.8,2.6,30.48,NE,38,1.0,15.0,53,0.00,,,0.04,287,Wunderground v.1.15,2014-03-03 21:50:00,
2014-03-03 17:00:00,16.5,2.3,30.48,North,5,2.0,2.0,53,0.00,,,0.05,253,Wunderground v.1.15,2014-03-03 22:00:00,
2014-03-03 17:05:00,16.5,2.3,30.48,NNE,32,2.0,3.0,53,0.00,,,0.05,214,Wunderground v.1.15,2014-03-03 22:05:00,
2014-03-03 17:15:00,16.4,2.6,30.49,NNW,346,1.0,15.0,54,0.00,,,0.05,171,Wunderground v.1.15,2014-03-03 22:15:00,
2014-03-03 17:20:00,16.1,1.9,30.50,NNE,33,2.0,2.0,53,0.00,,,0.05,98,Wunderground v.1.15,2014-03-03 22:20:00,
2014-03-03 17:25:00,15.8,2.1,30.49,North,350,1.0,15.0,54,0.00,,,0.05,37,Wunderground v.1.15,2014-03-03 22:25:00,
2014-03-03 17:35:00,15.3,2.0,30.50,NNE,13,1.0,15.0,55,0.00,,,0.05,33,Wunderground v.1.15,2014-03-03 22:35:00,
2014-03-03 17:40:00,15.1,2.2,30.50,North,5,1.0,15.0,56,0.00,,,0.05,30,Wunderground v.1.15,2014-03-03 22:40:00,
2014-03-03 17:45:00,14.9,2.0,30.50,North,5,0.0,15.0,56,0.00,,,0.05,28,Wunderground v.1.15,2014-03-03 22:45:00,
2014-03-03 17:55:00,14.6,2.1,30.50,North,5,0.0,15.0,57,0.00,,,0.05,25,Wunderground v.1.15,2014-03-03 22:55:00,
2014-03-03 18:05:00,14.2,2.1,30.50,NNE,28,0.0,15.0,58,0.00,,,0.05,21,Wunderground v.1.15,2014-03-03 23:05:00,
2014-03-03 18:10:00,14.0,2.3,30.50,NNE,29,0.0,15.0,59,0.00,,,0.05,18,Wunderground v.1.15,2014-03-03 23:10:00,
2014-03-03 18:20:00,13.7,2.0,30.50,NNE,28,0.0,15.0,59,0.00,,,0.05,14,Wunderground v.1.15,2014-03-03 23:20:00,
2014-03-03 18:25:00,13.5,2.2,30.50,NNE,28,0.0,15.0,60,0.00,,,0.05,11,Wunderground v.1.15,2014-03-03 23:25:00,
2014-03-03 18:30:00,13.3,2.0,30.50,NNE,29,0.0,15.0,60,0.00,,,0.05,7,Wunderground v.1.15,2014-03-03 23:30:00,
2014-03-03 18:35:00,13.1,1.8,30.50,North,5,0.0,15.0,60,0.00,,,0.05,0,Wunderground v.1.15,2014-03-03 23:35:00,
2014-03-03 18:40:00,12.8,1.5,30.50,North,5,0.0,15.0,60,0.00,,,0.05,0,Wunderground v.1.15,2014-03-03 23:40:00,
2014-03-03 18:50:00,12.3,1.4,30.50,North,5,0.0,15.0,61,0.00,,,0.05,0,Wunderground v.1.15,2014-03-03 23:50:00,
2014-03-03 18:55:00,12.0,0.8,30.51,North,5,0.0,15.0,60,0.00,,,0.05,0,Wunderground v.1.15,2014-03-03 23:55:00,
2014-03-03 19:00:00,11.8,0.9,30.50,North,5,0.0,15.0,61,0.00,,,0.05,0,Wunderground v.1.15,2014-03-04 00:00:00,
2014-03-03 19:10:00,11.3,0.4,30.50,NNE,13,0.0,15.0,61,0.00,,,0.05,0,Wunderground v.1.15,2014-03-04 00:10:00,
2014-03-03 19:15:00,11.1,0.6,30.49,NNE,13,0.0,15.0,62,0.00,,,0.05,0,Wunderground v.1.15,2014-03-04 00:15:00,
2014-03-03 19:25:00,10.7,0.6,30.50,NNE,13,0.0,15.0,63,0.00,,,0.05,0,Wunderground v.1.15,2014-03-04 00:25:00,
2014-03-03 19:35:00,10.3,0.5,30.49,NNE,13,0.0,15.0,64,0.00,,,0.05,0,Wunderground v.1.15,2014-03-04 00:35:00,
2014-03-03 19:40:00,10.1,0.3,30.49,NNE,13,0.0,15.0,64,0.00,,,0.05,0,Wunderground v.1.15,2014-03-04 00:40:00,
2014-03-03 19:45:00,9.9,0.1,30.49,NNE,13,0.0,15.0,64,0.00,,,0.05,0,Wunderground v.1.15,2014-03-04 00:45:00,
2014-03-03 19:50:00,9.6,0.2,30.49,NNE,13,0.0,15.0,65,0.00,,,0.05,0,Wunderground v.1.15,2014-03-04 00:50:00,
2014-03-03 19:55:00,9.4,0.0,30.49,NNE,13,0.0,15.0,65,0.00,,,0.05,0,Wunderground v.1.15,2014-03-04 00:55:00,
2014-03-03 20:00:00,9.3,0.2,30.48,NNE,13,0.0,15.0,66,0.00,,,0.05,0,Wunderground v.1.15,2014-03-04 01:00:00,
2014-03-03 20:10:00,9.0,-0.1,30.48,NNE,13,0.0,15.0,66,0.00,,,0.05,0,Wunderground v.1.15,2014-03-04 01:10:00,
2014-03-03 20:15:00,8.9,0.2,30.48,NNE,13,0.0,15.0,67,0.00,,,0.05,0,Wunderground v.1.15,2014-03-04 01:15:00,
2014-03-03 20:25:00,8.7,0.0,30.49,NNE,13,0.0,15.0,67,0.00,,,0.05,0,Wunderground v.1.15,2014-03-04 01:25:00,
2014-03-03 20:35:00,8.5,-0.2,30.49,NNE,13,0.0,15.0,67,0.00,,,0.05,0,Wunderground v.1.15,2014-03-04 01:35:00,
2014-03-03 20:45:00,8.2,-0.2,30.49,NNE,13,0.0,15.0,68,0.00,,,0.05,0,Wunderground v.1.15,2014-03-04 01:45:00,
2014-03-03 20:50:00,8.1,-0.3,30.49,NNE,13,0.0,15.0,68,0.00,,,0.05,0,Wunderground v.1.15,2014-03-04 01:50:00,
2014-03-03 21:00:00,7.7,-0.4,30.48,NNE,13,0.0,15.0,69,0.00,,,0.05,0,Wunderground v.1.15,2014-03-04 02:00:00,
2014-03-03 21:05:00,7.6,-0.1,30.48,NNE,13,0.0,15.0,70,0.00,,,0.05,0,Wunderground v.1.15,2014-03-04 02:05:00,
2014-03-03 21:15:00,7.2,-0.2,30.48,NNE,13,0.0,15.0,71,0.00,,,0.05,0,Wunderground v.1.15,2014-03-04 02:15:00,
2014-03-03 21:25:00,7.0,-0.1,30.47,NNE,13,0.0,15.0,72,0.00,,,0.05,0,Wunderground v.1.15,2014-03-04 02:25:00,
2014-03-03 21:35:00,7.0,0.2,30.48,NNE,13,0.0,15.0,73,0.00,,,0.05,0,Wunderground v.1.15,2014-03-04 02:35:00,
2014-03-03 21:45:00,6.9,0.4,30.48,NNE,13,0.0,15.0,74,0.00,,,0.05,0,Wunderground v.1.15,2014-03-04 02:45:00,
2014-03-03 21:50:00,6.9,0.4,30.48,NNE,13,0.0,15.0,74,0.00,,,0.05,0,Wunderground v.1.15,2014-03-04 02:50:00,
2014-03-03 21:55:00,6.8,0.3,30.48,NNE,13,0.0,15.0,74,0.00,,,0.05,0,Wunderground v.1.15,2014-03-04 02:55:00,
2014-03-03 22:05:00,6.6,0.1,30.48,NNE,13,0.0,15.0,74,0.00,,,0.05,0,Wunderground v.1.15,2014-03-04 03:05:00,
2014-03-03 22:15:00,6.8,0.6,30.48,NNE,13,0.0,15.0,75,0.00,,,0.05,0,Wunderground v.1.15,2014-03-04 03:15:00,
2014-03-03 22:20:00,6.9,0.4,30.48,NNE,13,0.0,15.0,74,0.00,,,0.05,0,Wunderground v.1.15,2014-03-04 03:20:00,
2014-03-03 22:25:00,7.0,0.5,30.48,NNE,13,0.0,15.0,74,0.00,,,0.05,0,Wunderground v.1.15,2014-03-04 03:25:00,
2014-03-03 22:35:00,6.9,0.1,30.48,NNE,13,0.0,15.0,73,0.00,,,0.05,0,Wunderground v.1.15,2014-03-04 03:35:00,
2014-03-03 22:45:00,6.9,0.1,30.47,NNE,13,0.0,15.0,73,0.00,,,0.05,0,Wunderground v.1.15,2014-03-04 03:45:00,
2014-03-03 22:50:00,7.0,0.2,30.47,NNE,13,0.0,15.0,73,0.00,,,0.05,0,Wunderground v.1.15,2014-03-04 03:50:00,
2014-03-03 23:00:00,6.9,0.1,30.48,NNE,13,0.0,15.0,73,0.00,,,0.05,0,Wunderground v.1.15,2014-03-04 04:00:00,
2014-03-03 23:05:00,6.9,0.1,30.48,NNE,13,0.0,15.0,73,0.00,,,0.05,0,Wunderground v.1.15,2014-03-04 04:05:00,
2014-03-03 23:15:00,6.8,0.0,30.47,NNE,13,0.0,15.0,73,0.00,,,0.05,0,Wunderground v.1.15,2014-03-04 04:15:00,
2014-03-03 23:20:00,6.5,-0.3,30.47,NNE,13,0.0,15.0,73,0.00,,,0.05,0,Wunderground v.1.15,2014-03-04 04:20:00,
2014-03-03 23:30:00,6.3,-0.2,30.47,NNE,13,0.0,15.0,74,0.00,,,0.05,0,Wunderground v.1.15,2014-03-04 04:30:00,
2014-03-03 23:40:00,6.0,-0.5,30.46,NNE,13,0.0,15.0,74,0.00,,,0.05,0,Wunderground v.1.15,2014-03-04 04:40:00,
2014-03-03 23:45:00,5.8,-0.4,30.46,NNE,13,0.0,15.0,75,0.00,,,0.05,0,Wunderground v.1.15,2014-03-04 04:45:00,
2014-03-03 23:55:00,5.6,-0.3,30.45,NNE,13,0.0,15.0,76,0.00,,,0.05,0,Wunderground v.1.15,2014-03-04 04:55:00,